createdAt,value
2019-02-12T00:00:43.821Z,100.00
2019-02-12T00:03:12.494Z,100.00
2019-02-12T00:05:40.980Z,100.00
2019-02-12T00:08:09.461Z,100.00
2019-02-12T00:10:38.137Z,100.00
2019-02-12T00:13:06.760Z,100.00
2019-02-12T00:15:35.237Z,100.00
2019-02-12T00:18:03.835Z,100.00
2019-02-12T00:20:32.462Z,100.00
2019-02-12T00:23:01.161Z,100.00
2019-02-12T00:25:29.688Z,100.00
2019-02-12T00:27:58.321Z,100.00
2019-02-12T00:30:26.830Z,100.00
2019-02-12T00:32:55.572Z,100.00
2019-02-12T00:35:24.195Z,100.00
2019-02-12T00:37:52.828Z,100.00
2019-02-12T00:40:21.349Z,100.00
2019-02-12T00:42:50.020Z,100.00
2019-02-12T00:45:26.647Z,100.00
2019-02-12T00:47:55.310Z,100.00
2019-02-12T00:50:23.805Z,100.00
2019-02-12T00:52:52.292Z,100.00
2019-02-12T00:55:20.950Z,100.00
2019-02-12T00:57:49.585Z,100.00
2019-02-12T01:00:18.205Z,100.00
2019-02-12T01:02:46.721Z,100.00
2019-02-12T01:05:15.341Z,100.00
2019-02-12T01:07:44.073Z,100.00
2019-02-12T01:10:12.758Z,99.93
2019-02-12T01:12:41.245Z,98.83
2019-02-12T01:15:12.801Z,97.95
2019-02-12T01:17:41.731Z,96.84
2019-02-12T01:20:13.267Z,95.80
2019-02-12T01:22:44.847Z,95.04
2019-02-12T01:25:13.712Z,94.54
2019-02-12T01:27:42.338Z,93.85
2019-02-12T01:30:13.993Z,91.99
2019-02-12T01:32:42.665Z,91.73
2019-02-12T01:35:11.286Z,90.98
2019-02-12T01:37:39.796Z,91.33
2019-02-12T01:40:11.279Z,91.35
2019-02-12T01:42:39.910Z,90.69
2019-02-12T01:45:10.222Z,91.14
2019-02-12T01:47:38.887Z,90.13
2019-02-12T01:50:09.927Z,88.08
2019-02-12T01:52:38.473Z,87.48
2019-02-12T01:55:07.130Z,87.25
2019-02-12T01:57:35.759Z,87.88
2019-02-12T02:00:10.028Z,88.18
2019-02-12T02:02:38.618Z,88.08
2019-02-12T02:05:09.346Z,89.19
2019-02-12T02:07:37.952Z,88.29
2019-02-12T02:10:09.984Z,87.46
2019-02-12T02:12:38.523Z,87.05
2019-02-12T02:15:09.941Z,89.37
2019-02-12T02:17:38.578Z,88.00
2019-02-12T02:20:10.006Z,88.56
2019-02-12T02:22:38.542Z,88.67
2019-02-12T02:25:09.753Z,87.92
2019-02-12T02:27:38.295Z,88.02
2019-02-12T02:30:09.795Z,87.75
2019-02-12T02:32:38.620Z,88.68
2019-02-12T02:35:07.512Z,89.12
2019-02-12T02:37:36.037Z,89.85
2019-02-12T02:40:06.459Z,89.86
2019-02-12T02:42:41.565Z,89.60
2019-02-12T02:45:12.598Z,87.79
2019-02-12T02:47:41.076Z,87.31
2019-02-12T02:50:10.703Z,87.94
2019-02-12T02:52:39.373Z,87.12
2019-02-12T02:55:09.285Z,87.49
2019-02-12T02:57:37.902Z,87.41
2019-02-12T03:00:11.391Z,89.29
2019-02-12T03:02:39.865Z,89.13
2019-02-12T03:05:10.985Z,89.34
2019-02-12T03:07:39.574Z,87.22
2019-02-12T03:10:10.085Z,87.81
2019-02-12T03:12:38.693Z,87.93
2019-02-12T03:15:09.557Z,88.29
2019-02-12T03:17:38.099Z,88.64
2019-02-12T03:20:13.083Z,87.85
2019-02-12T03:22:41.760Z,88.26
2019-02-12T03:25:10.984Z,88.29
2019-02-12T03:27:39.642Z,86.90
2019-02-12T03:30:14.346Z,87.31
2019-02-12T03:32:42.974Z,87.35
2019-02-12T03:35:11.769Z,87.19
2019-02-12T03:37:40.245Z,87.67
2019-02-12T03:40:10.970Z,87.59
2019-02-12T03:42:39.646Z,85.83
2019-02-12T03:45:10.667Z,85.81
2019-02-12T03:47:39.274Z,86.84
2019-02-12T03:50:10.150Z,84.67
2019-02-12T03:52:38.625Z,83.34
2019-02-12T03:55:10.177Z,82.88
2019-02-12T03:57:38.820Z,81.61
2019-02-12T04:00:15.689Z,82.37
2019-02-12T04:03:04.709Z,82.84
2019-02-12T04:05:33.922Z,82.86
2019-02-12T04:08:02.790Z,83.94
2019-02-12T04:10:31.410Z,84.35
2019-02-12T04:13:00.030Z,84.67
2019-02-12T04:15:28.661Z,84.35
2019-02-12T04:17:57.367Z,83.09
2019-02-12T04:20:26.009Z,83.53
2019-02-12T04:22:54.502Z,83.57
2019-02-12T04:25:23.421Z,84.32
2019-02-12T04:27:51.975Z,84.48
2019-02-12T04:30:20.589Z,84.28
2019-02-12T04:32:49.260Z,84.50
2019-02-12T04:35:17.749Z,84.41
2019-02-12T04:37:46.302Z,84.33
2019-02-12T04:40:14.960Z,83.67
2019-02-12T04:42:43.583Z,83.48
2019-02-12T04:45:12.383Z,83.23
2019-02-12T04:47:40.990Z,83.16
2019-02-12T04:50:14.417Z,82.38
2019-02-12T04:52:43.025Z,82.58
2019-02-12T04:55:12.490Z,83.47
2019-02-12T04:57:41.113Z,83.77
2019-02-12T05:00:16.887Z,83.85
2019-02-12T05:02:45.539Z,83.23
2019-02-12T05:05:14.266Z,83.87
2019-02-12T05:07:42.890Z,83.42
2019-02-12T05:10:21.048Z,83.79
2019-02-12T05:12:49.519Z,84.17
2019-02-12T05:15:18.142Z,84.44
2019-02-12T05:17:46.828Z,84.12
2019-02-12T05:20:15.643Z,84.34
2019-02-12T05:22:44.148Z,84.12
2019-02-12T05:25:13.297Z,85.82
2019-02-12T05:27:41.935Z,84.51
2019-02-12T05:30:12.533Z,84.61
2019-02-12T05:32:41.177Z,84.69
2019-02-12T05:35:09.825Z,84.74
2019-02-12T05:37:38.445Z,85.01
2019-02-12T05:40:09.444Z,85.01
2019-02-12T05:42:38.043Z,84.79
2019-02-12T05:45:12.318Z,83.95
2019-02-12T05:47:40.925Z,83.66
2019-02-12T05:50:14.309Z,83.72
2019-02-12T05:52:42.916Z,82.74
2019-02-12T05:55:11.761Z,82.84
2019-02-12T05:57:40.312Z,82.20
2019-02-12T06:00:15.393Z,80.70
2019-02-12T06:02:44.093Z,78.94
2019-02-12T06:05:15.590Z,78.98
2019-02-12T06:07:44.233Z,78.21
2019-02-12T06:10:12.904Z,77.10
2019-02-12T06:12:41.520Z,73.77
2019-02-12T06:15:10.081Z,70.79
2019-02-12T06:17:38.633Z,68.08
2019-02-12T06:20:08.163Z,64.90
2019-02-12T06:22:36.843Z,64.42
2019-02-12T06:25:07.955Z,62.80
2019-02-12T06:27:37.028Z,62.04
2019-02-12T06:30:08.838Z,59.97
2019-02-12T06:32:37.500Z,58.26
2019-02-12T06:35:08.430Z,56.93
2019-02-12T06:37:36.968Z,57.17
2019-02-12T06:40:10.888Z,58.29
2019-02-12T06:42:39.513Z,60.37
2019-02-12T06:45:12.770Z,61.93
2019-02-12T06:47:41.419Z,64.36
2019-02-12T06:50:14.217Z,65.85
2019-02-12T06:52:42.872Z,67.46
2019-02-12T06:55:11.933Z,65.95
2019-02-12T06:57:40.415Z,65.46
2019-02-12T07:00:15.497Z,65.95
2019-02-12T07:03:14.326Z,64.95
2019-02-12T07:06:03.784Z,63.54
2019-02-12T07:08:47.431Z,64.75
2019-02-12T07:11:31.096Z,64.18
2019-02-12T07:14:05.694Z,65.44
2019-02-12T07:16:42.942Z,64.44
2019-02-12T07:19:50.045Z,63.41
2019-02-12T07:22:30.215Z,63.93
2019-02-12T07:25:07.453Z,65.77
2019-02-12T07:27:38.994Z,65.33
2019-02-12T07:30:36.223Z,66.32
2019-02-12T07:33:13.438Z,68.49
2019-02-12T07:36:05.142Z,70.79
2019-02-12T07:38:59.123Z,70.39
2019-02-12T07:41:33.464Z,71.53
2019-02-12T07:44:24.722Z,70.59
2019-02-12T07:47:02.221Z,70.69
2019-02-12T07:49:42.455Z,70.27
2019-02-12T07:52:22.803Z,71.14
2019-02-12T07:54:59.959Z,68.95
2019-02-12T07:57:54.061Z,68.93
2019-02-12T08:00:28.390Z,69.63
2019-02-12T08:03:11.591Z,70.93
2019-02-12T08:05:51.971Z,71.84
2019-02-12T08:08:41.899Z,71.57
2019-02-12T08:11:16.352Z,71.83
2019-02-12T08:14:12.335Z,72.41
2019-02-12T08:16:52.987Z,72.65
2019-02-12T08:19:42.829Z,73.85
2019-02-12T08:22:40.474Z,71.84
2019-02-12T08:25:14.597Z,71.68
2019-02-12T08:28:01.066Z,70.22
2019-02-12T08:30:33.752Z,69.56
2019-02-12T08:33:07.888Z,70.12
2019-02-12T08:35:57.295Z,69.87
2019-02-12T08:38:33.889Z,69.59
2019-02-12T08:41:22.173Z,69.06
2019-02-12T08:43:53.699Z,68.27
2019-02-12T08:46:30.776Z,67.94
2019-02-12T08:49:11.081Z,68.27
2019-02-12T08:51:58.163Z,67.39
2019-02-12T08:54:51.058Z,68.53
2019-02-12T08:57:41.179Z,68.71
2019-02-12T09:00:18.471Z,66.71
2019-02-12T09:02:50.042Z,65.03
2019-02-12T09:05:21.578Z,64.26
2019-02-12T09:07:56.002Z,65.79
2019-02-12T09:10:30.127Z,66.82
2019-02-12T09:13:23.073Z,67.60
2019-02-12T09:16:00.320Z,66.78
2019-02-12T09:18:47.158Z,65.65
2019-02-12T09:21:33.917Z,66.03
2019-02-12T09:24:35.961Z,66.52
2019-02-12T09:27:16.213Z,65.24
2019-02-12T09:29:56.796Z,65.92
2019-02-12T09:32:46.707Z,64.95
2019-02-12T09:35:21.019Z,66.33
2019-02-12T09:38:17.717Z,65.84
2019-02-12T09:40:55.111Z,66.55
2019-02-12T09:43:32.692Z,66.42
2019-02-12T09:46:07.410Z,67.36
2019-02-12T09:48:38.937Z,66.17
2019-02-12T09:51:10.514Z,64.96
2019-02-12T09:53:50.867Z,65.90
2019-02-12T09:56:31.096Z,65.82
2019-02-12T09:59:24.679Z,64.94
2019-02-12T10:02:17.604Z,64.27
2019-02-12T10:04:58.223Z,65.11
2019-02-12T10:07:29.863Z,65.59
2019-02-12T10:10:01.491Z,64.67
2019-02-12T10:12:38.884Z,64.63
2019-02-12T10:15:19.360Z,65.35
2019-02-12T10:17:56.844Z,66.14
2019-02-12T10:20:37.102Z,64.99
2019-02-12T10:23:36.870Z,65.49
2019-02-12T10:26:08.440Z,65.77
2019-02-12T10:29:15.150Z,65.81
2019-02-12T10:31:42.806Z,66.67
2019-02-12T10:34:11.732Z,64.24
2019-02-12T10:36:40.352Z,64.16
2019-02-12T10:39:10.220Z,64.26
2019-02-12T10:41:38.782Z,64.20
2019-02-12T10:44:07.410Z,63.65
2019-02-12T10:46:36.295Z,63.54
2019-02-12T10:49:04.911Z,63.93
2019-02-12T10:51:33.527Z,64.27
2019-02-12T10:54:02.225Z,63.65
2019-02-12T10:56:30.846Z,63.34
2019-02-12T10:58:59.494Z,62.90
2019-02-12T11:01:28.087Z,62.72
2019-02-12T11:03:56.704Z,63.01
2019-02-12T11:06:25.319Z,63.84
2019-02-12T11:08:54.234Z,63.97
2019-02-12T11:11:22.883Z,63.75
2019-02-12T11:13:51.501Z,64.13
2019-02-12T11:16:20.156Z,63.22
2019-02-12T11:18:48.772Z,63.47
2019-02-12T11:21:17.339Z,63.38
2019-02-12T11:23:46.112Z,65.06
2019-02-12T11:26:14.706Z,64.01
2019-02-12T11:28:43.298Z,62.95
2019-02-12T11:31:12.207Z,63.75
2019-02-12T11:33:40.752Z,63.87
2019-02-12T11:36:09.366Z,63.66
2019-02-12T11:38:38.106Z,64.67
2019-02-12T11:41:06.663Z,63.66
2019-02-12T11:43:35.426Z,64.35
2019-02-12T11:46:04.052Z,64.21
2019-02-12T11:48:32.617Z,64.50
2019-02-12T11:51:01.272Z,64.60
2019-02-12T11:53:29.827Z,63.58
2019-02-12T11:55:58.447Z,63.55
2019-02-12T11:58:27.045Z,64.12
2019-02-12T12:00:57.154Z,62.89
2019-02-12T12:03:25.708Z,63.62
2019-02-12T12:05:54.390Z,62.58
2019-02-12T12:08:22.944Z,64.17
2019-02-12T12:10:51.420Z,63.07
2019-02-12T12:13:20.006Z,63.69
2019-02-12T12:15:48.664Z,63.76
2019-02-12T12:18:17.290Z,63.71
2019-02-12T12:20:45.848Z,64.11
2019-02-12T12:23:14.465Z,64.34
2019-02-12T12:25:43.095Z,63.32
2019-02-12T12:28:11.686Z,62.81
2019-02-12T12:30:40.150Z,62.79
2019-02-12T12:33:08.723Z,63.38
2019-02-12T12:35:37.385Z,64.20
2019-02-12T12:38:05.933Z,64.40
2019-02-12T12:40:34.536Z,65.11
2019-02-12T12:43:03.167Z,65.29
2019-02-12T12:45:31.637Z,65.54
2019-02-12T12:48:00.218Z,65.87
2019-02-12T12:50:28.848Z,66.41
2019-02-12T12:52:57.579Z,66.59
2019-02-12T12:55:26.120Z,67.02
2019-02-12T12:57:54.751Z,67.00
2019-02-12T13:00:23.438Z,66.58
2019-02-12T13:02:51.978Z,65.89
2019-02-12T13:05:20.527Z,65.77
2019-02-12T13:07:49.087Z,66.79
2019-02-12T13:10:18.320Z,66.38
2019-02-12T13:12:47.190Z,66.27
2019-02-12T13:15:16.203Z,65.85
2019-02-12T13:17:44.766Z,65.44
2019-02-12T13:20:16.083Z,65.27
2019-02-12T13:22:44.638Z,65.40
2019-02-12T13:25:13.363Z,65.77
2019-02-12T13:27:42.017Z,65.10
2019-02-12T13:30:13.555Z,65.37
2019-02-12T13:32:42.126Z,65.07
2019-02-12T13:35:11.483Z,66.39
2019-02-12T13:37:40.022Z,67.25
2019-02-12T13:40:10.848Z,67.81
2019-02-12T13:42:39.719Z,66.88
2019-02-12T13:45:10.882Z,67.71
2019-02-12T13:47:39.424Z,68.62
2019-02-12T13:50:09.588Z,68.87
2019-02-12T13:52:38.133Z,67.56
2019-02-12T13:55:15.429Z,68.11
2019-02-12T13:57:39.028Z,67.66
2019-02-12T14:00:16.709Z,67.70
2019-02-12T14:02:45.561Z,68.55
2019-02-12T14:05:17.076Z,69.43
2019-02-12T14:07:45.622Z,70.24
2019-02-12T14:10:14.538Z,69.39
2019-02-12T14:12:43.122Z,69.35
2019-02-12T14:15:13.336Z,69.76
2019-02-12T14:17:41.993Z,69.26
2019-02-12T14:20:15.522Z,69.56
2019-02-12T14:22:44.066Z,69.95
2019-02-12T14:25:14.066Z,69.60
2019-02-12T14:27:42.606Z,70.13
2019-02-12T14:30:16.009Z,69.95
2019-02-12T14:32:44.834Z,69.21
2019-02-12T14:35:13.481Z,68.78
2019-02-12T14:37:42.185Z,68.61
2019-02-12T14:40:13.772Z,69.54
2019-02-12T14:42:42.406Z,69.29
2019-02-12T14:45:15.775Z,69.12
2019-02-12T14:47:51.639Z,68.87
2019-02-12T14:50:21.017Z,70.09
2019-02-12T14:52:49.658Z,70.86
2019-02-12T14:55:18.338Z,69.92
2019-02-12T14:57:46.893Z,70.00
2019-02-12T15:00:16.901Z,70.14
2019-02-12T15:02:45.557Z,70.21
2019-02-12T15:05:14.294Z,70.57
2019-02-12T15:07:42.920Z,70.93
2019-02-12T15:10:13.966Z,71.70
2019-02-12T15:12:42.626Z,71.59
2019-02-12T15:15:11.543Z,72.44
2019-02-12T15:17:40.440Z,73.02
2019-02-12T15:20:15.359Z,73.01
2019-02-12T15:22:43.908Z,72.60
2019-02-12T15:25:14.030Z,72.69
2019-02-12T15:27:42.586Z,72.39
2019-02-12T15:30:14.055Z,73.45
2019-02-12T15:32:42.895Z,72.75
2019-02-12T15:35:11.902Z,73.06
2019-02-12T15:37:40.540Z,73.31
2019-02-12T15:40:11.712Z,73.63
2019-02-12T15:42:40.274Z,73.06
2019-02-12T15:45:14.447Z,73.91
2019-02-12T15:47:43.045Z,74.19
2019-02-12T15:50:12.166Z,74.23
2019-02-12T15:52:40.730Z,74.23
2019-02-12T15:55:11.678Z,75.05
2019-02-12T15:57:42.861Z,75.17
2019-02-12T16:00:20.469Z,74.82
2019-02-12T16:02:48.725Z,75.54
2019-02-12T16:05:17.362Z,75.47
2019-02-12T16:07:47.494Z,75.33
2019-02-12T16:10:20.913Z,75.71
2019-02-12T16:12:51.588Z,76.05
2019-02-12T16:15:22.436Z,76.40
2019-02-12T16:17:50.843Z,76.35
2019-02-12T16:20:19.328Z,75.85
2019-02-12T16:22:47.919Z,76.83
2019-02-12T16:25:16.543Z,76.98
2019-02-12T16:27:45.087Z,77.14
2019-02-12T16:30:18.716Z,76.87
2019-02-12T16:32:47.275Z,76.98
2019-02-12T16:35:18.971Z,77.61
2019-02-12T16:37:47.841Z,77.55
2019-02-12T16:40:18.204Z,77.58
2019-02-12T16:42:46.821Z,77.24
2019-02-12T16:45:30.421Z,77.66
2019-02-12T16:48:04.778Z,77.83
2019-02-12T16:50:33.460Z,78.24
2019-02-12T16:53:02.143Z,78.40
2019-02-12T16:55:30.616Z,78.48
2019-02-12T16:57:59.454Z,78.96
2019-02-12T17:00:28.078Z,78.04
2019-02-12T17:02:56.642Z,77.70
2019-02-12T17:05:25.172Z,77.20
2019-02-12T17:07:53.727Z,77.32
2019-02-12T17:10:22.343Z,77.33
2019-02-12T17:12:51.028Z,77.52
2019-02-12T17:15:19.593Z,77.67
2019-02-12T17:17:48.156Z,77.77
2019-02-12T17:20:22.319Z,77.51
2019-02-12T17:22:50.878Z,77.78
2019-02-12T17:25:19.426Z,78.01
2019-02-12T17:27:48.214Z,78.00
2019-02-12T17:30:18.022Z,77.72
2019-02-12T17:32:46.732Z,77.28
2019-02-12T17:35:15.385Z,77.61
2019-02-12T17:37:44.005Z,77.85
2019-02-12T17:40:17.365Z,78.26
2019-02-12T17:42:46.026Z,78.56
2019-02-12T17:45:15.653Z,77.96
2019-02-12T17:47:44.292Z,78.06
2019-02-12T17:50:16.471Z,78.71
2019-02-12T17:52:45.030Z,78.65
2019-02-12T17:55:13.580Z,78.34
2019-02-12T17:57:42.219Z,77.77
2019-02-12T18:00:22.070Z,78.66
2019-02-12T18:02:50.719Z,79.10
2019-02-12T18:05:19.330Z,78.96
2019-02-12T18:07:47.898Z,78.93
2019-02-12T18:10:16.607Z,78.61
2019-02-12T18:12:45.165Z,78.55
2019-02-12T18:15:14.725Z,78.56
2019-02-12T18:17:43.300Z,78.38
2019-02-12T18:20:17.405Z,78.08
2019-02-12T18:22:46.026Z,78.18
2019-02-12T18:25:14.819Z,78.48
2019-02-12T18:27:43.459Z,78.54
2019-02-12T18:30:15.059Z,78.56
2019-02-12T18:32:43.991Z,78.20
2019-02-12T18:35:12.599Z,78.76
2019-02-12T18:37:41.213Z,78.82
2019-02-12T18:40:14.651Z,79.12
2019-02-12T18:42:43.213Z,79.67
2019-02-12T18:45:17.063Z,80.28
2019-02-12T18:47:45.935Z,80.68
2019-02-12T18:50:14.563Z,80.90
2019-02-12T18:52:43.289Z,80.93
2019-02-12T18:55:16.247Z,81.40
2019-02-12T18:57:44.866Z,81.13
2019-02-12T19:00:19.212Z,80.91
2019-02-12T19:02:48.271Z,80.83
2019-02-12T19:05:16.914Z,80.15
2019-02-12T19:07:45.485Z,80.46
2019-02-12T19:10:15.756Z,80.11
2019-02-12T19:12:44.425Z,80.39
2019-02-12T19:15:15.477Z,80.45
2019-02-12T19:17:46.237Z,80.12
2019-02-12T19:20:14.788Z,80.66
2019-02-12T19:22:43.424Z,81.09
2019-02-12T19:25:12.089Z,81.31
2019-02-12T19:27:40.649Z,81.68
2019-02-12T19:30:12.234Z,81.57
2019-02-12T19:32:41.054Z,81.98
2019-02-12T19:35:11.082Z,82.56
2019-02-12T19:37:39.706Z,83.25
2019-02-12T19:40:10.584Z,83.54
2019-02-12T19:42:39.216Z,83.87
2019-02-12T19:45:12.919Z,83.90
2019-02-12T19:47:41.516Z,83.96
2019-02-12T19:50:11.099Z,84.08
2019-02-12T19:52:39.652Z,84.33
2019-02-12T19:55:09.879Z,84.43
2019-02-12T19:57:38.444Z,84.59
2019-02-12T20:00:17.757Z,84.95
2019-02-12T20:02:46.311Z,85.18
2019-02-12T20:05:14.875Z,85.71
2019-02-12T20:07:43.459Z,86.01
2019-02-12T20:10:13.495Z,86.63
2019-02-12T20:12:42.053Z,86.67
2019-02-12T20:15:21.668Z,86.92
2019-02-12T20:17:50.289Z,87.50
2019-02-12T20:20:18.915Z,87.44
2019-02-12T20:22:47.585Z,87.54
2019-02-12T20:25:16.218Z,87.69
2019-02-12T20:27:44.763Z,87.51
2019-02-12T20:30:15.028Z,87.61
2019-02-12T20:32:43.589Z,87.81
2019-02-12T20:35:20.519Z,88.02
2019-02-12T20:37:49.138Z,87.88
2019-02-12T20:40:17.757Z,87.68
2019-02-12T20:42:46.410Z,87.65
2019-02-12T20:45:18.910Z,87.10
2019-02-12T20:47:47.540Z,86.93
2019-02-12T20:50:17.563Z,86.12
2019-02-12T20:52:46.119Z,85.88
2019-02-12T20:55:14.731Z,85.40
2019-02-12T20:57:43.612Z,85.55
2019-02-12T21:00:20.433Z,85.42
2019-02-12T21:02:49.114Z,85.82
2019-02-12T21:05:17.747Z,86.15
2019-02-12T21:07:46.372Z,86.34
2019-02-12T21:10:19.850Z,86.22
2019-02-12T21:12:48.401Z,86.31
2019-02-12T21:15:19.678Z,86.50
2019-02-12T21:17:48.333Z,87.10
2019-02-12T21:20:17.001Z,87.51
2019-02-12T21:22:45.618Z,87.80
2019-02-12T21:25:14.395Z,88.48
2019-02-12T21:27:42.957Z,88.94
2019-02-12T21:30:22.932Z,88.98
2019-02-12T21:32:51.766Z,89.30
2019-02-12T21:35:20.393Z,89.96
2019-02-12T21:37:48.963Z,90.04
2019-02-12T21:40:25.256Z,89.95
2019-02-12T21:42:54.056Z,90.25
2019-02-12T21:45:22.610Z,90.08
2019-02-12T21:47:51.167Z,90.09
2019-02-12T21:50:19.828Z,89.77
2019-02-12T21:52:48.392Z,89.46
2019-02-12T21:55:21.393Z,88.54
2019-02-12T21:57:50.053Z,88.80
2019-02-12T22:00:22.261Z,88.74
2019-02-12T22:02:50.829Z,88.26
2019-02-12T22:05:19.691Z,87.01
2019-02-12T22:07:48.247Z,85.84
2019-02-12T22:10:22.438Z,84.77
2019-02-12T22:12:51.091Z,84.22
2019-02-12T22:15:19.722Z,84.12
2019-02-12T22:17:48.276Z,84.34
2019-02-12T22:20:21.391Z,84.27
2019-02-12T22:22:49.952Z,84.16
2019-02-12T22:25:18.581Z,84.53
2019-02-12T22:27:47.378Z,85.23
2019-02-12T22:30:25.749Z,85.32
2019-02-12T22:32:54.579Z,84.83
2019-02-12T22:35:23.211Z,84.57
2019-02-12T22:37:51.764Z,84.26
2019-02-12T22:40:20.439Z,84.24
2019-02-12T22:42:48.987Z,83.62
2019-02-12T22:45:23.371Z,83.39
2019-02-12T22:47:52.028Z,83.08
2019-02-12T22:50:20.749Z,83.18
2019-02-12T22:52:49.375Z,83.31
2019-02-12T22:55:18.030Z,82.84
2019-02-12T22:57:49.345Z,83.08
2019-02-12T23:00:39.835Z,82.90
2019-02-12T23:03:08.953Z,82.47
2019-02-12T23:05:37.579Z,82.70
2019-02-12T23:08:06.251Z,83.09
2019-02-12T23:10:34.743Z,82.97
2019-02-12T23:13:03.308Z,82.73
2019-02-12T23:15:32.039Z,82.65
2019-02-12T23:18:00.604Z,82.20
2019-02-12T23:20:29.229Z,82.11
2019-02-12T23:22:57.907Z,82.60
2019-02-12T23:25:26.388Z,82.48
2019-02-12T23:27:57.699Z,82.46
2019-02-12T23:30:25.481Z,82.36
2019-02-12T23:32:54.036Z,82.71
2019-02-12T23:35:22.515Z,83.20
2019-02-12T23:37:51.106Z,84.06
2019-02-12T23:40:19.721Z,84.11
2019-02-12T23:42:48.345Z,84.45
2019-02-12T23:45:17.130Z,84.92
2019-02-12T23:47:45.675Z,85.59
2019-02-12T23:50:14.309Z,85.99
2019-02-12T23:52:42.922Z,86.18
2019-02-12T23:55:11.419Z,86.36
2019-02-12T23:57:39.967Z,86.64
